Time;durP1;ratioP1;P1;durP2;ratioP2;P2;SDS_P1;SDS_P2;PMS_P1;PMS_P2;Temp;Humidity;BMP_temperature;BMP_pressure;BME280_temperature;BME280_humidity;BME280_pressure;Samples;Min_cycle;Max_cycle;Signal;HPM_P1;HPM_P2
2022/06/15 00:00:58;;;;;;;16.50;4.03;;;18.10;99.90;;;;;;5095235;28;20376;-66
2022/06/15 00:03:28;;;;;;;14.10;4.20;;;17.90;99.90;;;;;;5091441;28;20028;-66
2022/06/15 00:06:23;;;;;;;10.05;4.40;;;17.90;99.90;;;;;;5093902;28;20017;-66
2022/06/15 00:08:52;;;;;;;17.90;4.38;;;17.70;99.90;;;;;;5094626;28;20028;-66
2022/06/15 00:11:31;;;;;;;10.00;3.95;;;17.80;99.90;;;;;;5095016;28;20020;-70
2022/06/15 00:13:59;;;;;;;12.38;3.90;;;18.10;99.90;;;;;;5094372;28;20036;-67
2022/06/15 00:16:25;;;;;;;12.65;4.45;;;18.10;99.90;;;;;;5095428;28;20032;-66
2022/06/15 00:18:52;;;;;;;13.25;4.50;;;18.20;99.90;;;;;;5094728;28;20465;-66
2022/06/15 00:21:19;;;;;;;11.70;4.07;;;18.00;99.90;;;;;;5094952;28;20020;-72
2022/06/15 00:23:46;;;;;;;10.95;4.60;;;17.80;99.90;;;;;;5094608;28;20031;-68
2022/06/15 00:26:13;;;;;;;11.00;4.45;;;17.50;99.90;;;;;;5094678;28;20479;-67
2022/06/15 00:28:39;;;;;;;10.45;4.47;;;17.30;99.90;;;;;;5087159;28;20362;-72
2022/06/15 00:31:05;;;;;;;11.70;4.35;;;17.30;99.90;;;;;;5086786;28;20035;-72
2022/06/15 00:33:31;;;;;;;11.48;4.93;;;17.50;99.90;;;;;;5094470;28;20105;-67
2022/06/15 00:36:03;;;;;;;9.77;3.97;;;17.40;99.90;;;;;;5094687;28;20031;-68
2022/06/15 00:38:39;;;;;;;11.40;4.20;;;17.10;99.90;;;;;;5093944;28;20031;-66
2022/06/15 00:41:07;;;;;;;9.05;3.97;;;17.10;99.90;;;;;;5093364;28;20020;-66
2022/06/15 00:43:41;;;;;;;11.13;4.63;;;17.10;99.90;;;;;;5094283;28;20050;-71
2022/06/15 00:46:14;;;;;;;9.38;4.28;;;17.10;99.90;;;;;;5091177;28;20024;-68
2022/06/15 00:48:41;;;;;;;8.27;4.32;;;17.10;99.90;;;;;;5091090;28;20483;-66
2022/06/15 00:51:07;;;;;;;9.85;4.30;;;17.10;99.90;;;;;;5082424;28;20460;-67
2022/06/15 00:53:33;;;;;;;16.45;4.97;;;17.40;99.90;;;;;;5073770;28;20052;-66
2022/06/15 00:55:59;;;;;;;8.00;4.50;;;17.50;99.90;;;;;;5076403;28;20024;-68
2022/06/15 00:58:25;;;;;;;9.27;3.85;;;17.20;99.90;;;;;;5089880;28;20035;-68
2022/06/15 01:00:53;;;;;;;9.10;3.78;;;17.30;99.90;;;;;;5080084;28;20016;-66
2022/06/15 01:03:20;;;;;;;16.13;4.45;;;17.30;99.90;;;;;;5090847;28;20162;-72
2022/06/15 01:06:01;;;;;;;11.50;4.15;;;17.30;99.90;;;;;;5088621;28;20103;-66
2022/06/15 01:08:40;;;;;;;7.95;3.60;;;17.20;99.90;;;;;;5086314;28;20040;-70
2022/06/15 01:11:21;;;;;;;10.27;4.38;;;17.10;99.90;;;;;;5089046;28;20518;-67
2022/06/15 01:14:07;;;;;;;11.40;4.88;;;16.80;99.90;;;;;;5093456;28;20062;-68
2022/06/15 01:17:04;;;;;;;9.75;4.15;;;16.70;99.90;;;;;;5092669;28;20055;-67
2022/06/15 01:20:08;;;;;;;11.23;4.68;;;16.90;99.90;;;;;;5093625;28;20123;-66
2022/06/15 01:22:37;;;;;;;8.73;4.38;;;16.90;99.90;;;;;;5093763;28;20081;-66
2022/06/15 01:25:22;;;;;;;8.82;4.53;;;16.70;99.90;;;;;;5087908;28;20469;-68
2022/06/15 01:28:18;;;;;;;11.95;5.18;;;16.60;99.90;;;;;;5087039;28;20024;-68
2022/06/15 01:31:12;;;;;;;9.60;4.30;;;16.30;99.90;;;;;;5072389;28;20036;-67
2022/06/15 01:34:07;;;;;;;11.48;4.68;;;16.40;99.90;;;;;;5091965;28;20032;-68
2022/06/15 01:36:43;;;;;;;9.63;4.68;;;16.00;99.90;;;;;;5092084;28;20032;-68
2022/06/15 01:39:23;;;;;;;8.38;4.45;;;16.10;99.90;;;;;;5093221;28;20024;-66
2022/06/15 01:42:15;;;;;;;8.95;4.63;;;16.00;99.90;;;;;;5091962;28;20426;-66
2022/06/15 01:44:47;;;;;;;9.95;4.90;;;16.20;99.90;;;;;;5093459;28;20016;-66
2022/06/15 01:47:19;;;;;;;9.10;4.40;;;16.00;99.90;;;;;;5087399;28;20035;-72
2022/06/15 01:49:59;;;;;;;8.27;4.20;;;15.90;99.90;;;;;;5091771;28;20028;-66
2022/06/15 01:52:30;;;;;;;13.80;4.28;;;15.80;99.90;;;;;;5092115;28;20024;-67
2022/06/15 01:55:21;;;;;;;10.15;4.85;;;16.00;99.90;;;;;;5092006;28;20115;-66
2022/06/15 01:57:50;;;;;;;10.77;5.15;;;16.00;99.90;;;;;;5091964;28;20380;-72
2022/06/15 02:00:20;;;;;;;14.63;5.38;;;16.10;99.90;;;;;;5077367;28;20120;-67
2022/06/15 02:02:51;;;;;;;13.77;5.22;;;16.10;99.90;;;;;;5092073;28;20381;-67
2022/06/15 02:05:32;;;;;;;13.52;6.25;;;16.10;99.90;;;;;;5084901;28;20537;-72
2022/06/15 02:08:09;;;;;;;13.43;5.82;;;16.40;99.90;;;;;;5058600;28;20153;-67
2022/06/15 02:11:15;;;;;;;12.70;5.13;;;16.40;99.90;;;;;;5069337;28;20042;-66
2022/06/15 02:13:47;;;;;;;12.27;4.88;;;16.50;99.90;;;;;;5079694;28;20067;-68
2022/06/15 02:16:24;;;;;;;14.38;4.63;;;16.40;99.90;;;;;;5091410;28;20115;-71
2022/06/15 02:18:53;;;;;;;16.15;4.93;;;16.40;99.90;;;;;;5091440;28;20024;-67
2022/06/15 02:21:23;;;;;;;12.60;4.70;;;16.30;99.90;;;;;;5092276;28;20032;-67
2022/06/15 02:23:55;;;;;;;11.40;5.30;;;16.30;99.90;;;;;;5091831;28;20020;-67
2022/06/15 02:26:24;;;;;;;9.43;4.40;;;16.40;99.90;;;;;;5092652;28;20024;-66
2022/06/15 02:28:54;;;;;;;15.05;5.43;;;16.40;99.90;;;;;;5091624;28;20029;-68
2022/06/15 02:31:20;;;;;;;9.27;4.45;;;16.40;99.90;;;;;;5091478;28;20031;-67
2022/06/15 02:33:51;;;;;;;11.45;4.82;;;16.40;99.90;;;;;;5091345;28;20043;-68
2022/06/15 02:36:18;;;;;;;7.15;4.40;;;16.40;99.90;;;;;;5093968;28;20044;-69
2022/06/15 02:38:49;;;;;;;11.93;4.28;;;16.20;99.90;;;;;;5095834;28;20024;-67
2022/06/15 02:41:19;;;;;;;8.43;5.15;;;16.20;99.90;;;;;;5095274;28;20032;-66
2022/06/15 02:43:48;;;;;;;11.00;4.75;;;16.20;99.90;;;;;;5095503;28;20462;-67
2022/06/15 02:46:17;;;;;;;12.65;5.28;;;15.80;99.90;;;;;;5092361;28;20021;-67
2022/06/15 02:48:43;;;;;;;8.18;4.90;;;15.80;99.90;;;;;;5095266;28;20023;-67
2022/06/15 02:51:26;;;;;;;12.07;5.03;;;15.80;99.90;;;;;;5095391;28;20353;-67
2022/06/15 02:54:07;;;;;;;12.88;5.50;;;15.70;99.90;;;;;;5095423;28;20075;-71
2022/06/15 02:56:35;;;;;;;14.00;5.30;;;15.50;99.90;;;;;;5095024;28;20492;-66
2022/06/15 02:59:02;;;;;;;12.55;4.93;;;15.40;99.90;;;;;;5091898;28;20016;-68
2022/06/15 03:01:29;;;;;;;8.07;4.45;;;15.60;99.90;;;;;;5084674;28;20111;-67
2022/06/15 03:03:55;;;;;;;14.20;5.90;;;15.50;99.90;;;;;;5088224;28;20020;-68
2022/06/15 03:06:27;;;;;;;9.27;4.68;;;15.40;99.90;;;;;;5095071;28;20024;-67
2022/06/15 03:08:58;;;;;;;11.63;5.70;;;15.40;99.90;;;;;;5094867;28;20031;-66
2022/06/15 03:11:35;;;;;;;10.00;5.35;;;15.30;99.90;;;;;;5095089;28;20114;-72
2022/06/15 03:14:08;;;;;;;10.68;4.50;;;15.30;99.90;;;;;;5094622;28;20040;-68
2022/06/15 03:16:34;;;;;;;13.10;4.72;;;15.20;99.90;;;;;;5094639;28;20027;-71
2022/06/15 03:19:01;;;;;;;11.63;5.20;;;14.90;99.90;;;;;;5094923;28;20032;-66
2022/06/15 03:21:27;;;;;;;9.73;5.05;;;14.90;99.90;;;;;;5094587;28;20028;-71
2022/06/15 03:23:54;;;;;;;17.20;4.70;;;14.90;99.90;;;;;;5094981;28;20020;-67
2022/06/15 03:26:20;;;;;;;14.48;5.22;;;14.90;99.90;;;;;;5094565;28;20028;-67
2022/06/15 03:28:46;;;;;;;17.73;5.63;;;14.70;99.90;;;;;;5094739;28;20028;-72
2022/06/15 03:31:15;;;;;;;12.25;4.60;;;14.70;99.90;;;;;;5094354;28;20020;-67
2022/06/15 03:33:42;;;;;;;8.02;4.55;;;14.90;99.90;;;;;;5077895;28;20124;-67
2022/06/15 03:36:12;;;;;;;16.95;5.80;;;14.90;99.90;;;;;;5094154;28;20039;-68
2022/06/15 03:38:38;;;;;;;8.95;4.82;;;14.70;99.90;;;;;;5094630;28;20035;-68
2022/06/15 03:41:19;;;;;;;13.68;4.93;;;14.90;99.90;;;;;;5094444;28;20101;-66
2022/06/15 03:43:47;;;;;;;14.52;5.05;;;14.60;99.90;;;;;;5086665;28;20046;-67
2022/06/15 03:46:15;;;;;;;9.63;5.10;;;14.40;99.90;;;;;;5085230;28;20157;-70
2022/06/15 03:48:43;;;;;;;13.18;5.20;;;14.50;99.90;;;;;;5093515;28;20012;-66
2022/06/15 03:51:09;;;;;;;11.27;4.97;;;14.50;99.90;;;;;;5094526;28;20115;-66
2022/06/15 03:53:47;;;;;;;17.88;5.18;;;14.70;99.90;;;;;;5094122;28;20085;-67
2022/06/15 03:56:13;;;;;;;11.50;5.15;;;14.80;99.90;;;;;;5094308;28;20035;-72
2022/06/15 03:58:39;;;;;;;15.82;5.57;;;14.70;99.90;;;;;;5093590;28;20016;-67
2022/06/15 04:01:05;;;;;;;9.45;5.18;;;14.90;99.90;;;;;;5081217;28;20023;-66
2022/06/15 04:03:32;;;;;;;9.57;5.03;;;14.90;99.90;;;;;;5088962;28;20086;-68
2022/06/15 04:06:03;;;;;;;14.13;5.07;;;15.00;99.90;;;;;;5093400;28;20016;-71
2022/06/15 04:08:35;;;;;;;10.75;5.15;;;15.20;99.90;;;;;;5093753;28;20035;-72
2022/06/15 04:11:07;;;;;;;9.70;4.60;;;15.30;99.90;;;;;;5093996;28;20491;-67
2022/06/15 04:13:35;;;;;;;11.40;5.05;;;15.40;99.90;;;;;;5093561;28;20502;-66
2022/06/15 04:16:04;;;;;;;8.00;4.68;;;15.70;99.90;;;;;;5093432;28;20461;-66
2022/06/15 04:18:32;;;;;;;10.18;4.90;;;15.70;99.90;;;;;;5093640;28;20028;-67
2022/06/15 04:21:04;;;;;;;11.48;4.30;;;15.60;99.90;;;;;;5093604;28;20028;-72
2022/06/15 04:23:30;;;;;;;11.25;4.68;;;15.50;99.90;;;;;;5094847;28;20020;-70
2022/06/15 04:26:02;;;;;;;10.77;5.72;;;15.70;99.90;;;;;;5093755;28;20034;-67
2022/06/15 04:28:37;;;;;;;13.40;5.32;;;15.80;99.90;;;;;;5070157;28;20028;-66
2022/06/15 04:31:11;;;;;;;10.57;4.90;;;15.90;99.90;;;;;;5093331;28;20028;-72
2022/06/15 04:33:39;;;;;;;8.93;4.65;;;16.10;99.90;;;;;;5093230;28;20035;-66
2022/06/15 04:36:07;;;;;;;13.45;5.18;;;16.20;99.90;;;;;;5093487;28;20473;-67
2022/06/15 04:38:33;;;;;;;12.30;5.20;;;16.30;99.90;;;;;;5093254;28;20036;-68
2022/06/15 04:41:04;;;;;;;16.85;5.28;;;16.40;99.90;;;;;;5093421;28;20032;-68
2022/06/15 04:43:31;;;;;;;11.32;5.32;;;16.50;99.90;;;;;;5093297;28;20502;-71
2022/06/15 04:45:57;;;;;;;11.38;5.90;;;16.40;99.90;;;;;;5092727;28;20028;-71
2022/06/15 04:48:24;;;;;;;9.73;4.65;;;16.30;99.90;;;;;;5090831;28;20032;-72
2022/06/15 04:50:51;;;;;;;12.02;4.55;;;16.50;99.90;;;;;;5093102;28;20020;-66
2022/06/15 04:53:17;;;;;;;12.40;5.45;;;16.50;99.90;;;;;;5092733;28;20043;-67
2022/06/15 04:55:48;;;;;;;8.43;5.18;;;16.60;99.90;;;;;;5093050;28;20161;-66
2022/06/15 04:58:15;;;;;;;12.30;5.40;;;16.50;99.90;;;;;;5092291;28;20996;-68
2022/06/15 05:00:43;;;;;;;14.90;6.18;;;16.60;99.90;;;;;;5077992;28;20012;-66
2022/06/15 05:03:12;;;;;;;14.55;6.40;;;16.60;99.90;;;;;;5090757;28;20107;-69
2022/06/15 05:05:38;;;;;;;15.35;5.45;;;16.80;99.90;;;;;;5088383;28;20115;-66
2022/06/15 05:08:06;;;;;;;15.02;5.88;;;17.10;99.90;;;;;;5092845;28;20024;-66
2022/06/15 05:10:32;;;;;;;26.05;5.88;;;17.00;99.90;;;;;;5092633;28;20027;-67
2022/06/15 05:12:58;;;;;;;18.50;6.13;;;16.90;99.90;;;;;;5093614;28;20020;-66
2022/06/15 05:15:25;;;;;;;14.70;6.20;;;16.90;99.90;;;;;;5092485;28;20056;-72
2022/06/15 05:18:04;;;;;;;18.05;6.07;;;17.00;99.90;;;;;;5092615;28;20081;-72
2022/06/15 05:20:35;;;;;;;16.77;5.75;;;17.20;99.90;;;;;;5092442;28;20034;-67
2022/06/15 05:23:02;;;;;;;17.25;6.15;;;17.20;99.90;;;;;;5093964;28;20053;-67
2022/06/15 05:26:03;;;;;;;11.13;5.50;;;16.90;99.90;;;;;;5083492;28;20036;-67
2022/06/15 05:28:30;;;;;;;19.23;5.40;;;16.70;99.90;;;;;;5092066;28;20024;-69
2022/06/15 05:31:09;;;;;;;17.85;6.32;;;16.80;99.90;;;;;;5092355;28;20024;-70
2022/06/15 05:33:40;;;;;;;22.08;5.60;;;16.70;99.90;;;;;;5092594;28;20131;-68
2022/06/15 05:36:10;;;;;;;18.73;6.97;;;16.70;99.90;;;;;;5092227;28;20020;-66
2022/06/15 05:38:36;;;;;;;24.45;6.50;;;16.80;99.90;;;;;;5092201;28;20020;-68
2022/06/15 05:41:03;;;;;;;26.05;6.00;;;16.90;99.90;;;;;;5093533;28;20026;-65
2022/06/15 05:43:31;;;;;;;26.55;6.35;;;16.90;99.90;;;;;;5091757;28;20024;-71
2022/06/15 05:45:57;;;;;;;31.20;7.13;;;16.90;99.90;;;;;;5091356;28;20042;-68
2022/06/15 05:48:23;;;;;;;19.85;6.07;;;17.10;99.90;;;;;;5072407;28;20020;-67
2022/06/15 05:50:49;;;;;;;19.38;6.85;;;17.20;99.90;;;;;;5064987;28;20497;-67
2022/06/15 05:53:19;;;;;;;19.30;6.15;;;17.70;99.90;;;;;;5065587;28;20041;-66
2022/06/15 05:55:45;;;;;;;21.92;7.22;;;17.90;99.90;;;;;;5071903;28;20016;-66
2022/06/15 05:58:11;;;;;;;30.42;7.43;;;18.00;99.90;;;;;;5071759;28;20032;-66
2022/06/15 06:00:38;;;;;;;24.58;7.53;;;18.00;99.90;;;;;;5072510;28;20024;-66
2022/06/15 06:03:04;;;;;;;18.98;6.68;;;17.80;99.90;;;;;;5075990;28;20037;-68
2022/06/15 06:05:30;;;;;;;36.42;7.20;;;17.60;99.90;;;;;;5079153;28;20039;-72
2022/06/15 06:07:56;;;;;;;28.15;6.90;;;17.80;99.90;;;;;;5087007;28;20024;-67
2022/06/15 06:10:22;;;;;;;17.20;6.40;;;18.00;99.90;;;;;;5088992;28;20111;-67
2022/06/15 06:12:48;;;;;;;17.80;7.20;;;18.30;99.90;;;;;;5087940;28;20492;-66
2022/06/15 06:15:14;;;;;;;17.20;6.95;;;18.50;99.90;;;;;;5076638;28;20041;-66
2022/06/15 06:17:40;;;;;;;17.00;6.85;;;18.40;99.90;;;;;;5081734;28;20031;-71
2022/06/15 06:20:06;;;;;;;22.73;7.15;;;18.20;99.90;;;;;;5087219;28;20368;-69
2022/06/15 06:22:32;;;;;;;29.92;6.43;;;18.10;99.90;;;;;;5085921;28;20024;-72
2022/06/15 06:24:58;;;;;;;15.40;7.25;;;18.40;99.90;;;;;;5078111;28;20496;-67
2022/06/15 06:27:24;;;;;;;17.42;6.30;;;18.70;99.90;;;;;;5071201;28;20040;-68
2022/06/15 06:29:49;;;;;;;18.15;6.57;;;18.60;99.90;;;;;;5072371;28;20046;-73
2022/06/15 06:32:16;;;;;;;18.70;5.93;;;18.60;99.90;;;;;;5077898;28;20040;-67
2022/06/15 06:34:43;;;;;;;19.30;6.38;;;18.70;99.90;;;;;;5074971;28;20029;-68
2022/06/15 06:37:13;;;;;;;16.58;6.40;;;18.80;99.90;;;;;;5071666;28;20452;-69
2022/06/15 06:39:40;;;;;;;29.35;6.90;;;19.00;99.90;;;;;;5072061;28;20029;-68
2022/06/15 06:42:05;;;;;;;28.30;6.55;;;19.30;99.90;;;;;;5072396;28;20024;-67
2022/06/15 06:44:34;;;;;;;23.88;6.32;;;19.40;99.90;;;;;;5071676;28;20480;-68
2022/06/15 06:47:00;;;;;;;20.17;6.60;;;19.70;99.90;;;;;;5072072;28;20031;-68
2022/06/15 06:49:26;;;;;;;30.75;6.90;;;19.90;99.90;;;;;;5072478;28;20534;-67
2022/06/15 06:51:52;;;;;;;21.73;6.57;;;19.80;99.90;;;;;;5072137;28;20024;-70
2022/06/15 06:54:21;;;;;;;26.38;6.13;;;19.80;99.90;;;;;;5070840;28;20044;-67
2022/06/15 06:56:47;;;;;;;29.33;6.53;;;19.80;99.90;;;;;;5072186;28;20068;-68
2022/06/15 06:59:15;;;;;;;27.05;6.70;;;19.90;99.90;;;;;;5072183;28;20025;-69
2022/06/15 07:01:42;;;;;;;20.00;6.40;;;19.80;99.90;;;;;;5071955;28;20090;-68
2022/06/15 07:04:09;;;;;;;18.33;6.13;;;19.80;99.90;;;;;;5083509;28;20047;-69
2022/06/15 07:06:36;;;;;;;24.80;7.40;;;19.80;99.90;;;;;;5092418;28;20069;-70
2022/06/15 07:09:02;;;;;;;22.30;5.95;;;19.70;99.90;;;;;;5092055;28;20488;-67
2022/06/15 07:11:28;;;;;;;25.75;6.40;;;19.70;99.90;;;;;;5092278;28;20039;-68
2022/06/15 07:13:54;;;;;;;16.52;5.90;;;20.10;99.90;;;;;;5092420;28;20484;-69
2022/06/15 07:16:21;;;;;;;17.67;5.57;;;20.20;99.90;;;;;;5092294;28;20062;-68
2022/06/15 07:18:48;;;;;;;19.75;5.40;;;20.40;99.90;;;;;;5092456;28;20042;-70
2022/06/15 07:21:17;;;;;;;21.65;5.63;;;20.70;99.90;;;;;;5092119;28;20456;-68
2022/06/15 07:23:45;;;;;;;15.70;5.18;;;21.00;99.90;;;;;;5095144;28;20388;-68
2022/06/15 07:26:14;;;;;;;9.57;4.47;;;21.20;99.50;;;;;;5096094;28;20422;-67
2022/06/15 07:28:41;;;;;;;14.45;4.95;;;21.20;99.60;;;;;;5096087;28;20036;-68
2022/06/15 07:31:07;;;;;;;14.05;4.85;;;21.30;99.70;;;;;;5095730;28;20471;-69
2022/06/15 07:33:34;;;;;;;17.25;4.78;;;21.20;99.40;;;;;;5095653;28;20549;-69
2022/06/15 07:36:00;;;;;;;14.38;5.22;;;21.10;99.20;;;;;;5095728;28;20059;-68
2022/06/15 07:38:26;;;;;;;14.15;4.68;;;21.50;99.00;;;;;;5095326;28;20388;-68
2022/06/15 07:40:52;;;;;;;11.95;4.60;;;21.70;98.30;;;;;;5095617;28;20460;-68
2022/06/15 07:43:18;;;;;;;11.57;3.72;;;21.60;98.20;;;;;;5095387;28;20040;-69
2022/06/15 07:45:45;;;;;;;10.65;4.03;;;21.60;98.10;;;;;;5095766;28;20020;-68
2022/06/15 07:50:56;;;;;;;17.73;4.55;;;21.60;98.60;;;;;;5095629;28;20056;-68
2022/06/15 07:53:21;;;;;;;11.05;3.72;;;21.90;98.10;;;;;;5094901;28;20036;-68
2022/06/15 07:55:48;;;;;;;11.82;4.10;;;21.80;97.80;;;;;;5095788;28;20035;-69
2022/06/15 07:58:15;;;;;;;13.52;4.43;;;22.00;97.60;;;;;;5095073;28;20019;-68
2022/06/15 08:00:43;;;;;;;11.68;3.95;;;22.30;97.30;;;;;;5081099;28;20067;-68
2022/06/15 08:03:10;;;;;;;13.68;3.92;;;22.20;97.00;;;;;;5093355;28;20376;-68
2022/06/15 08:05:41;;;;;;;10.50;4.25;;;22.30;97.90;;;;;;5090710;28;20554;-69
2022/06/15 08:08:13;;;;;;;17.77;3.92;;;22.50;96.50;;;;;;5094945;28;20043;-69
2022/06/15 08:10:40;;;;;;;13.55;3.35;;;22.60;96.40;;;;;;5093877;28;20036;-70
2022/06/15 08:13:07;;;;;;;15.60;3.72;;;22.50;96.50;;;;;;5094979;28;20040;-68
2022/06/15 08:15:33;;;;;;;17.30;4.25;;;22.50;96.00;;;;;;5095104;28;20038;-67
2022/06/15 08:18:04;;;;;;;14.27;3.28;;;22.50;95.50;;;;;;5094928;28;20048;-68
2022/06/15 08:20:58;;;;;;;11.48;3.63;;;22.50;96.70;;;;;;5095172;28;20085;-69
2022/06/15 08:23:27;;;;;;;9.32;3.38;;;22.70;95.60;;;;;;5093167;28;20056;-68
2022/06/15 08:25:57;;;;;;;14.15;4.18;;;22.70;95.40;;;;;;5094866;28;20103;-69
2022/06/15 08:28:26;;;;;;;13.95;3.65;;;22.70;95.10;;;;;;5094829;28;20020;-69
2022/06/15 08:30:52;;;;;;;13.90;4.32;;;23.00;95.50;;;;;;5094995;28;20036;-69
2022/06/15 08:33:18;;;;;;;18.23;4.10;;;23.30;94.80;;;;;;5094244;28;20036;-68
2022/06/15 08:35:44;;;;;;;15.30;4.47;;;23.20;94.70;;;;;;5093155;28;20039;-68
2022/06/15 08:38:15;;;;;;;16.10;4.10;;;23.20;95.40;;;;;;5094234;28;20092;-69
2022/06/15 08:41:33;;;;;;;11.40;3.47;;;23.40;94.60;;;;;;5094843;28;20386;-68
2022/06/15 08:44:34;;;;;;;15.80;4.38;;;23.40;94.40;;;;;;5060573;28;20373;-69
2022/06/15 08:47:28;;;;;;;13.63;3.15;;;23.60;93.80;;;;;;5069707;28;20027;-68
2022/06/15 08:50:16;;;;;;;9.85;3.28;;;23.60;94.60;;;;;;5094285;28;20047;-69
2022/06/15 08:52:47;;;;;;;14.60;3.75;;;23.70;94.00;;;;;;5094902;28;20483;-69
2022/06/15 08:55:38;;;;;;;11.88;3.58;;;23.90;93.20;;;;;;5094036;28;20061;-68
2022/06/15 08:58:12;;;;;;;9.95;3.65;;;24.00;93.60;;;;;;5093969;28;20077;-68
2022/06/15 09:00:40;;;;;;;17.80;4.03;;;24.40;92.60;;;;;;5073162;28;20482;-68
2022/06/15 09:03:44;;;;;;;9.85;4.05;;;24.20;91.90;;;;;;5092740;28;20109;-68
2022/06/15 09:06:29;;;;;;;12.35;3.97;;;24.00;92.60;;;;;;5066114;28;20035;-68
2022/06/15 09:09:01;;;;;;;16.20;3.70;;;24.20;93.30;;;;;;5093906;28;20024;-70
2022/06/15 09:11:38;;;;;;;11.40;3.58;;;24.60;92.70;;;;;;5094095;28;20028;-69
2022/06/15 09:14:22;;;;;;;7.65;3.28;;;24.10;92.60;;;;;;5093292;28;20044;-69
2022/06/15 09:17:19;;;;;;;14.95;3.97;;;24.50;92.70;;;;;;5094112;28;20376;-69
2022/06/15 09:19:50;;;;;;;15.07;3.95;;;24.90;92.00;;;;;;5093724;28;20020;-70
2022/06/15 09:22:23;;;;;;;10.02;3.40;;;25.20;92.20;;;;;;5093850;28;20140;-70
2022/06/15 09:25:01;;;;;;;10.68;3.67;;;25.00;92.10;;;;;;5093498;28;20032;-68
2022/06/15 09:27:40;;;;;;;13.77;3.50;;;25.40;92.00;;;;;;5093627;28;20024;-70
2022/06/15 09:30:17;;;;;;;7.75;3.22;;;25.80;91.10;;;;;;5067701;28;20110;-71
2022/06/15 09:32:57;;;;;;;15.30;4.57;;;25.70;90.80;;;;;;5093715;28;20032;-69
2022/06/15 09:35:46;;;;;;;10.97;3.57;;;25.70;90.80;;;;;;5093262;28;20477;-68
2022/06/15 09:38:13;;;;;;;12.43;4.18;;;26.00;90.40;;;;;;5093088;28;20032;-69
2022/06/15 09:40:56;;;;;;;25.13;4.55;;;26.00;90.30;;;;;;5093431;28;20445;-68
2022/06/15 09:43:21;;;;;;;13.65;4.10;;;25.80;90.20;;;;;;5093505;28;20107;-68
2022/06/15 09:46:01;;;;;;;12.50;4.28;;;25.90;90.80;;;;;;5092870;28;20063;-68
2022/06/15 09:49:01;;;;;;;17.10;4.10;;;26.00;90.60;;;;;;5089721;28;20110;-68
2022/06/15 09:51:49;;;;;;;19.50;4.82;;;26.00;91.00;;;;;;5093121;28;20031;-69
2022/06/15 09:54:52;;;;;;;19.88;3.90;;;26.40;89.70;;;;;;5092766;28;20036;-69
2022/06/15 09:57:19;;;;;;;14.75;3.38;;;26.50;89.70;;;;;;5093170;28;20111;-69
2022/06/15 09:59:46;;;;;;;16.25;3.95;;;26.50;90.30;;;;;;5082405;28;20107;-69
2022/06/15 10:02:27;;;;;;;12.32;3.75;;;26.20;90.30;;;;;;5088371;28;20031;-69
2022/06/15 10:04:54;;;;;;;15.02;3.78;;;26.30;90.80;;;;;;5086701;28;20414;-70
2022/06/15 10:07:28;;;;;;;20.52;4.93;;;26.30;90.90;;;;;;5092798;28;20111;-68
2022/06/15 10:10:13;;;;;;;14.55;4.03;;;26.50;90.10;;;;;;5092838;28;20120;-68
2022/06/15 10:12:56;;;;;;;14.25;3.10;;;26.90;90.00;;;;;;5092367;28;20040;-69
2022/06/15 10:15:43;;;;;;;14.57;4.28;;;27.30;90.20;;;;;;5092585;28;20036;-69
2022/06/15 10:18:42;;;;;;;12.07;3.28;;;27.00;88.50;;;;;;5084887;28;20071;-69
2022/06/15 10:21:14;;;;;;;11.65;4.03;;;26.80;90.00;;;;;;5092553;28;20024;-69
2022/06/15 10:23:54;;;;;;;12.77;3.75;;;27.10;88.90;;;;;;5092551;28;20068;-68
2022/06/15 10:26:42;;;;;;;12.80;4.18;;;27.20;88.50;;;;;;5092396;28;20103;-70
2022/06/15 10:29:23;;;;;;;11.52;3.30;;;27.30;87.80;;;;;;5091863;28;20439;-69
2022/06/15 10:32:20;;;;;;;9.75;3.67;;;27.10;88.70;;;;;;5042034;28;20415;-68
2022/06/15 10:34:46;;;;;;;10.57;4.22;;;27.10;88.50;;;;;;5081833;28;20056;-67
2022/06/15 10:37:22;;;;;;;14.45;3.90;;;27.10;85.50;;;;;;5092288;28;20028;-69
2022/06/15 10:39:54;;;;;;;11.98;3.70;;;27.10;86.60;;;;;;5080862;28;20028;-68
2022/06/15 10:42:41;;;;;;;12.05;3.20;;;27.30;87.70;;;;;;5082007;28;20647;-71
2022/06/15 10:45:30;;;;;;;10.82;3.17;;;27.60;86.60;;;;;;5072085;28;20047;-67
2022/06/15 10:48:02;;;;;;;10.05;3.45;;;27.80;86.60;;;;;;5071799;28;20039;-65
2022/06/15 10:51:05;;;;;;;12.32;3.78;;;27.60;85.70;;;;;;5072116;28;20027;-66
2022/06/15 10:53:42;;;;;;;10.77;4.20;;;27.60;86.60;;;;;;5029828;28;20508;-66
2022/06/15 11:02:41;;;;;;;14.77;3.60;;;27.80;87.20;;;;;;5092209;28;20028;-67
2022/06/15 11:05:09;;;;;;;11.65;3.33;;;28.30;86.80;;;;;;5089895;28;20030;-66
2022/06/15 11:07:50;;;;;;;8.75;2.97;;;28.00;85.90;;;;;;5095901;28;20024;-67
2022/06/15 11:10:25;;;;;;;10.57;3.25;;;28.00;88.20;;;;;;5096112;28;20024;-65
2022/06/15 11:13:19;;;;;;;11.30;3.53;;;28.00;85.40;;;;;;5090653;28;20036;-67
2022/06/15 11:18:37;;;;;;;18.05;2.85;;;28.70;84.60;;;;;;5073695;28;20104;-65
2022/06/15 11:21:23;;;;;;;14.50;2.97;;;28.90;84.20;;;;;;5075754;28;20032;-66
2022/06/15 11:24:01;;;;;;;13.90;3.03;;;28.50;84.30;;;;;;5075757;28;20354;-66
2022/06/15 11:26:52;;;;;;;10.23;3.63;;;28.30;85.20;;;;;;5075558;28;20021;-66
2022/06/15 11:29:52;;;;;;;13.48;3.47;;;28.20;84.70;;;;;;5075401;28;20020;-66
2022/06/15 11:32:46;;;;;;;28.20;3.25;;;28.40;83.40;;;;;;5075394;28;20472;-66
2022/06/15 11:35:12;;;;;;;17.58;2.70;;;28.30;86.30;;;;;;5075679;28;20047;-65
2022/06/15 11:38:04;;;;;;;10.20;3.30;;;28.60;84.10;;;;;;5075193;28;20032;-68
2022/06/15 11:40:42;;;;;;;19.80;3.97;;;28.90;84.40;;;;;;5075711;28;20078;-67
2022/06/15 11:43:23;;;;;;;10.23;2.75;;;28.80;83.90;;;;;;5070822;28;20036;-66
2022/06/15 11:46:20;;;;;;;13.65;3.60;;;29.40;84.50;;;;;;5075064;28;20028;-66
2022/06/15 11:49:02;;;;;;;8.60;3.00;;;29.40;80.20;;;;;;5066387;28;20110;-66
2022/06/15 11:51:41;;;;;;;12.65;2.80;;;30.00;81.50;;;;;;5074971;28;20033;-66
2022/06/15 11:54:13;;;;;;;6.65;2.50;;;29.90;81.80;;;;;;5075471;28;20051;-67
2022/06/15 11:57:10;;;;;;;14.65;3.10;;;29.60;82.20;;;;;;5070939;28;20020;-66
2022/06/15 12:00:12;;;;;;;12.45;3.33;;;29.30;82.40;;;;;;5074689;28;20181;-68
2022/06/15 12:03:15;;;;;;;10.73;3.03;;;29.40;82.20;;;;;;5094921;28;20032;-65
2022/06/15 12:05:52;;;;;;;11.40;3.10;;;29.80;81.10;;;;;;5087571;28;20156;-66
2022/06/15 12:08:48;;;;;;;8.85;2.90;;;29.30;80.30;;;;;;5094563;28;20047;-66
2022/06/15 12:14:40;;;;;;;11.55;3.20;;;29.50;79.90;;;;;;5094450;28;20036;-67
2022/06/15 12:17:27;;;;;;;14.40;2.97;;;30.00;81.90;;;;;;5078858;28;20024;-67
2022/06/15 12:20:15;;;;;;;10.23;3.00;;;29.90;81.40;;;;;;5069010;28;20020;-67
2022/06/15 12:22:50;;;;;;;10.00;2.33;;;29.40;80.10;;;;;;5094685;28;20077;-67
2022/06/15 12:25:26;;;;;;;13.45;3.10;;;29.50;82.90;;;;;;5094912;28;20387;-67
2022/06/15 12:28:07;;;;;;;10.48;2.47;;;30.30;81.10;;;;;;5093144;28;20032;-68
2022/06/15 12:30:38;;;;;;;8.17;2.57;;;29.90;80.20;;;;;;5094737;28;20119;-67
2022/06/15 12:33:08;;;;;;;11.27;2.80;;;29.60;80.10;;;;;;5094479;28;20068;-66
2022/06/15 12:35:50;;;;;;;11.18;2.55;;;30.00;79.30;;;;;;5094806;28;20024;-66
2022/06/15 12:38:30;;;;;;;12.32;2.80;;;30.50;79.70;;;;;;5094411;28;20032;-67
2022/06/15 12:41:07;;;;;;;14.68;3.20;;;31.50;80.40;;;;;;5094612;28;20088;-68
2022/06/15 12:43:43;;;;;;;6.80;2.40;;;31.00;78.90;;;;;;5092579;28;20070;-67
2022/06/15 12:46:16;;;;;;;11.48;3.10;;;31.10;77.20;;;;;;5092559;28;20032;-66
2022/06/15 12:48:53;;;;;;;11.65;3.15;;;30.90;78.10;;;;;;5066844;28;20020;-67
2022/06/15 12:51:52;;;;;;;14.73;3.67;;;30.80;77.00;;;;;;5094333;28;20032;-67
2022/06/15 12:54:27;;;;;;;11.98;3.05;;;30.90;74.90;;;;;;5073518;28;20066;-65
2022/06/15 12:57:03;;;;;;;11.55;3.10;;;30.20;76.70;;;;;;5093960;28;20115;-66
2022/06/15 12:59:31;;;;;;;7.50;2.60;;;30.30;75.80;;;;;;5086847;28;20028;-67
2022/06/15 13:02:13;;;;;;;13.18;3.10;;;30.00;76.00;;;;;;5087859;28;20031;-66
2022/06/15 13:05:00;;;;;;;10.32;2.95;;;30.50;76.30;;;;;;5087453;28;20051;-67
2022/06/15 13:07:28;;;;;;;28.02;5.38;;;30.40;74.50;;;;;;5094075;28;20377;-65
2022/06/15 13:10:17;;;;;;;13.15;3.30;;;30.90;74.40;;;;;;5093979;28;20016;-67
2022/06/15 13:12:57;;;;;;;12.80;3.60;;;30.80;73.10;;;;;;5093381;28;20040;-67
2022/06/15 13:15:26;;;;;;;23.30;4.25;;;30.00;74.50;;;;;;5093811;28;20032;-67
2022/06/15 13:18:09;;;;;;;17.13;3.70;;;30.00;73.70;;;;;;5093647;28;20016;-67
2022/06/15 13:20:45;;;;;;;15.43;3.45;;;29.50;74.70;;;;;;5092975;28;20052;-66
2022/06/15 13:23:23;;;;;;;16.83;3.10;;;29.70;74.60;;;;;;5066105;28;20100;-67
2022/06/15 13:25:52;;;;;;;7.03;2.30;;;30.60;73.80;;;;;;5091960;28;20032;-68
2022/06/15 13:28:23;;;;;;;12.18;2.67;;;31.10;74.40;;;;;;5093922;28;20060;-67